CheckWX is a tool to help pilots better visualize weather data.  It is not intended as a substitute for an official pre-flight weather briefing.

16:51:26 UTC

CYMT METAR
Chapais Airport
Chibougamau, Canada
Current

25 mins ago

CYMT 111626Z AUTO 15006KT 8SM BKN030 M19/M21 A2993 RMK SLP182
Observed
Dec-11 @ 16:26 UTC
Wind
  • 150° at 6 KTS
Visibility
8 SM
Flight Rules
MVFR
Cloud Levels
  • Broken at 3,000' AGL
Temperature
-19°C / -2°F
Dewpoint
-21°C / -6°F
Humidity
84%
Altimeter
29.93" Hg
Pressure
1013.52 hPa
Previous

35 mins ago

CYMT 111616Z AUTO 15006KT 3SM -SN OVC030 M19/M22 A2994 RMK PRESFR SLP184
Observed
Dec-11 @ 16:16 UTC
Wind
  • 150° at 6 KTS
Visibility
3 SM
Flight Rules
MVFR
Conditions
Light Snow
Cloud Levels
  • Overcast at 3,000' AGL
Temperature
-19°C / -2°F
Dewpoint
-22°C / -8°F
Humidity
77%
Altimeter
29.94" Hg
Pressure
1013.92 hPa
Previous

1 hour ago

CYMT 111547Z AUTO 14004KT 4SM BR OVC038 M21/M24 A2997 RMK SLP194
Observed
Dec-11 @ 15:47 UTC
Wind
  • 140° at 4 KTS
Visibility
4 SM
Flight Rules
MVFR
Conditions
Mist
Cloud Levels
  • Overcast at 3,800' AGL
Temperature
-21°C / -6°F
Dewpoint
-24°C / -11°F
Humidity
77%
Altimeter
29.97" Hg
Pressure
1014.92 hPa